sensor_id;sensor_type;location;lat;lon;timestamp;P1;durP1;ratioP1;P2;durP2;ratioP2
67564;SDS011;54393;53.556;49.216;2023-12-20T00:01:40;1.10;;;1.10;;
67564;SDS011;54393;53.556;49.216;2023-12-20T00:04:10;1.00;;;1.00;;
67564;SDS011;54393;53.556;49.216;2023-12-20T00:06:42;0.90;;;0.90;;
67564;SDS011;54393;53.556;49.216;2023-12-20T00:09:11;0.93;;;0.93;;
67564;SDS011;54393;53.556;49.216;2023-12-20T00:11:41;1.30;;;1.20;;
67564;SDS011;54393;53.556;49.216;2023-12-20T00:14:23;0.95;;;0.95;;
67564;SDS011;54393;53.556;49.216;2023-12-20T00:17:07;1.30;;;1.20;;
67564;SDS011;54393;53.556;49.216;2023-12-20T00:19:37;1.10;;;1.00;;
67564;SDS011;54393;53.556;49.216;2023-12-20T00:22:13;0.90;;;0.90;;
67564;SDS011;54393;53.556;49.216;2023-12-20T00:24:46;1.12;;;1.05;;
67564;SDS011;54393;53.556;49.216;2023-12-20T00:27:16;1.05;;;1.05;;
67564;SDS011;54393;53.556;49.216;2023-12-20T00:29:51;0.98;;;0.98;;
67564;SDS011;54393;53.556;49.216;2023-12-20T00:32:20;1.20;;;1.10;;
67564;SDS011;54393;53.556;49.216;2023-12-20T00:34:54;0.82;;;0.82;;
67564;SDS011;54393;53.556;49.216;2023-12-20T00:37:24;1.45;;;1.35;;
67564;SDS011;54393;53.556;49.216;2023-12-20T00:39:58;0.90;;;0.90;;
67564;SDS011;54393;53.556;49.216;2023-12-20T00:42:28;0.70;;;0.70;;
67564;SDS011;54393;53.556;49.216;2023-12-20T00:45:04;0.82;;;0.82;;
67564;SDS011;54393;53.556;49.216;2023-12-20T00:47:48;1.00;;;1.00;;
67564;SDS011;54393;53.556;49.216;2023-12-20T00:50:24;1.12;;;1.08;;
67564;SDS011;54393;53.556;49.216;2023-12-20T00:52:53;1.12;;;1.02;;
67564;SDS011;54393;53.556;49.216;2023-12-20T00:55:24;1.02;;;0.93;;
67564;SDS011;54393;53.556;49.216;2023-12-20T00:57:59;0.95;;;0.95;;
67564;SDS011;54393;53.556;49.216;2023-12-20T01:00:28;0.88;;;0.88;;
67564;SDS011;54393;53.556;49.216;2023-12-20T01:02:57;0.95;;;0.95;;
67564;SDS011;54393;53.556;49.216;2023-12-20T01:05:26;0.90;;;0.90;;
67564;SDS011;54393;53.556;49.216;2023-12-20T01:07:56;0.95;;;0.95;;
67564;SDS011;54393;53.556;49.216;2023-12-20T01:10:36;1.10;;;1.10;;
67564;SDS011;54393;53.556;49.216;2023-12-20T01:13:10;1.00;;;1.00;;
67564;SDS011;54393;53.556;49.216;2023-12-20T01:15:48;1.00;;;1.00;;
67564;SDS011;54393;53.556;49.216;2023-12-20T01:18:18;1.12;;;1.10;;
67564;SDS011;54393;53.556;49.216;2023-12-20T01:21:01;0.88;;;0.88;;
67564;SDS011;54393;53.556;49.216;2023-12-20T01:23:42;0.85;;;0.85;;
67564;SDS011;54393;53.556;49.216;2023-12-20T01:26:14;1.27;;;1.17;;
67564;SDS011;54393;53.556;49.216;2023-12-20T01:28:52;1.20;;;1.20;;
67564;SDS011;54393;53.556;49.216;2023-12-20T01:31:22;1.05;;;0.95;;
67564;SDS011;54393;53.556;49.216;2023-12-20T01:33:50;0.90;;;0.90;;
67564;SDS011;54393;53.556;49.216;2023-12-20T01:36:20;0.90;;;0.90;;
67564;SDS011;54393;53.556;49.216;2023-12-20T01:38:49;0.90;;;0.90;;
67564;SDS011;54393;53.556;49.216;2023-12-20T01:41:19;0.85;;;0.85;;
67564;SDS011;54393;53.556;49.216;2023-12-20T01:43:49;1.00;;;1.00;;
67564;SDS011;54393;53.556;49.216;2023-12-20T01:46:22;1.00;;;1.00;;
67564;SDS011;54393;53.556;49.216;2023-12-20T01:48:54;1.20;;;1.10;;
67564;SDS011;54393;53.556;49.216;2023-12-20T01:51:25;1.25;;;1.08;;
67564;SDS011;54393;53.556;49.216;2023-12-20T01:54:02;1.25;;;1.15;;
67564;SDS011;54393;53.556;49.216;2023-12-20T01:56:31;0.93;;;0.90;;
67564;SDS011;54393;53.556;49.216;2023-12-20T01:59:04;1.10;;;1.10;;
67564;SDS011;54393;53.556;49.216;2023-12-20T02:01:49;1.00;;;0.90;;
67564;SDS011;54393;53.556;49.216;2023-12-20T02:04:24;1.23;;;1.12;;
67564;SDS011;54393;53.556;49.216;2023-12-20T02:06:54;0.93;;;0.93;;
67564;SDS011;54393;53.556;49.216;2023-12-20T02:12:05;1.30;;;1.23;;
67564;SDS011;54393;53.556;49.216;2023-12-20T02:14:39;0.80;;;0.80;;
67564;SDS011;54393;53.556;49.216;2023-12-20T02:17:09;1.02;;;1.02;;
67564;SDS011;54393;53.556;49.216;2023-12-20T02:19:39;0.80;;;0.80;;
67564;SDS011;54393;53.556;49.216;2023-12-20T02:22:15;0.80;;;0.80;;
67564;SDS011;54393;53.556;49.216;2023-12-20T02:24:50;0.85;;;0.85;;
67564;SDS011;54393;53.556;49.216;2023-12-20T02:27:23;0.70;;;0.70;;
67564;SDS011;54393;53.556;49.216;2023-12-20T02:29:54;0.85;;;0.85;;
67564;SDS011;54393;53.556;49.216;2023-12-20T02:32:24;0.60;;;0.60;;
67564;SDS011;54393;53.556;49.216;2023-12-20T02:34:53;0.75;;;0.75;;
67564;SDS011;54393;53.556;49.216;2023-12-20T02:37:36;0.70;;;0.70;;
67564;SDS011;54393;53.556;49.216;2023-12-20T02:40:09;0.73;;;0.73;;
67564;SDS011;54393;53.556;49.216;2023-12-20T02:42:39;0.82;;;0.75;;
67564;SDS011;54393;53.556;49.216;2023-12-20T02:45:13;1.27;;;0.77;;
67564;SDS011;54393;53.556;49.216;2023-12-20T02:47:42;0.60;;;0.60;;
67564;SDS011;54393;53.556;49.216;2023-12-20T02:50:16;0.70;;;0.70;;
67564;SDS011;54393;53.556;49.216;2023-12-20T02:52:46;0.60;;;0.60;;
67564;SDS011;54393;53.556;49.216;2023-12-20T02:55:15;0.60;;;0.60;;
67564;SDS011;54393;53.556;49.216;2023-12-20T02:57:44;0.77;;;0.77;;
67564;SDS011;54393;53.556;49.216;2023-12-20T03:00:20;0.77;;;0.77;;
67564;SDS011;54393;53.556;49.216;2023-12-20T03:02:49;0.68;;;0.68;;
67564;SDS011;54393;53.556;49.216;2023-12-20T03:05:26;0.55;;;0.55;;
67564;SDS011;54393;53.556;49.216;2023-12-20T03:08:00;0.75;;;0.75;;
67564;SDS011;54393;53.556;49.216;2023-12-20T03:10:30;0.73;;;0.73;;
67564;SDS011;54393;53.556;49.216;2023-12-20T03:13:05;0.70;;;0.70;;
67564;SDS011;54393;53.556;49.216;2023-12-20T03:15:34;0.60;;;0.60;;
67564;SDS011;54393;53.556;49.216;2023-12-20T03:18:03;0.40;;;0.40;;
67564;SDS011;54393;53.556;49.216;2023-12-20T03:20:40;0.40;;;0.40;;
67564;SDS011;54393;53.556;49.216;2023-12-20T03:23:14;0.52;;;0.52;;
67564;SDS011;54393;53.556;49.216;2023-12-20T03:25:43;0.52;;;0.52;;
67564;SDS011;54393;53.556;49.216;2023-12-20T03:28:14;0.80;;;0.80;;
67564;SDS011;54393;53.556;49.216;2023-12-20T03:30:46;0.75;;;0.75;;
67564;SDS011;54393;53.556;49.216;2023-12-20T03:33:21;0.60;;;0.60;;
67564;SDS011;54393;53.556;49.216;2023-12-20T03:36:00;0.60;;;0.60;;
67564;SDS011;54393;53.556;49.216;2023-12-20T03:38:34;0.40;;;0.40;;
67564;SDS011;54393;53.556;49.216;2023-12-20T03:41:07;0.55;;;0.55;;
67564;SDS011;54393;53.556;49.216;2023-12-20T03:43:42;0.43;;;0.40;;
67564;SDS011;54393;53.556;49.216;2023-12-20T03:46:12;0.47;;;0.47;;
67564;SDS011;54393;53.556;49.216;2023-12-20T03:48:45;0.50;;;0.50;;
67564;SDS011;54393;53.556;49.216;2023-12-20T03:51:17;0.70;;;0.70;;
67564;SDS011;54393;53.556;49.216;2023-12-20T03:53:46;0.50;;;0.50;;
67564;SDS011;54393;53.556;49.216;2023-12-20T03:58:58;0.40;;;0.40;;
67564;SDS011;54393;53.556;49.216;2023-12-20T04:01:30;0.50;;;0.50;;
67564;SDS011;54393;53.556;49.216;2023-12-20T04:03:59;0.50;;;0.50;;
67564;SDS011;54393;53.556;49.216;2023-12-20T04:06:37;0.60;;;0.60;;
67564;SDS011;54393;53.556;49.216;2023-12-20T04:09:09;0.70;;;0.52;;
67564;SDS011;54393;53.556;49.216;2023-12-20T04:11:42;0.62;;;0.62;;
67564;SDS011;54393;53.556;49.216;2023-12-20T04:14:17;0.40;;;0.40;;
67564;SDS011;54393;53.556;49.216;2023-12-20T04:16:49;0.30;;;0.30;;
67564;SDS011;54393;53.556;49.216;2023-12-20T04:19:19;0.52;;;0.50;;
67564;SDS011;54393;53.556;49.216;2023-12-20T04:21:50;0.60;;;0.60;;
67564;SDS011;54393;53.556;49.216;2023-12-20T04:24:20;0.40;;;0.40;;
67564;SDS011;54393;53.556;49.216;2023-12-20T04:26:49;0.60;;;0.60;;
67564;SDS011;54393;53.556;49.216;2023-12-20T04:29:18;0.45;;;0.45;;
67564;SDS011;54393;53.556;49.216;2023-12-20T04:31:49;0.50;;;0.50;;
67564;SDS011;54393;53.556;49.216;2023-12-20T04:34:33;0.60;;;0.60;;
67564;SDS011;54393;53.556;49.216;2023-12-20T04:37:03;0.60;;;0.60;;
67564;SDS011;54393;53.556;49.216;2023-12-20T04:39:39;0.40;;;0.40;;
67564;SDS011;54393;53.556;49.216;2023-12-20T04:42:43;0.30;;;0.30;;
67564;SDS011;54393;53.556;49.216;2023-12-20T04:45:19;0.30;;;0.30;;
67564;SDS011;54393;53.556;49.216;2023-12-20T04:47:52;0.50;;;0.50;;
67564;SDS011;54393;53.556;49.216;2023-12-20T04:50:40;0.50;;;0.50;;
67564;SDS011;54393;53.556;49.216;2023-12-20T04:53:10;0.43;;;0.43;;
67564;SDS011;54393;53.556;49.216;2023-12-20T04:55:39;0.50;;;0.50;;
67564;SDS011;54393;53.556;49.216;2023-12-20T04:58:20;0.40;;;0.40;;
67564;SDS011;54393;53.556;49.216;2023-12-20T05:00:51;1.65;;;0.70;;
67564;SDS011;54393;53.556;49.216;2023-12-20T05:03:20;0.50;;;0.50;;
67564;SDS011;54393;53.556;49.216;2023-12-20T05:05:49;0.80;;;0.30;;
67564;SDS011;54393;53.556;49.216;2023-12-20T05:08:21;0.40;;;0.40;;
67564;SDS011;54393;53.556;49.216;2023-12-20T05:10:55;0.40;;;0.40;;
67564;SDS011;54393;53.556;49.216;2023-12-20T05:13:25;0.40;;;0.40;;
67564;SDS011;54393;53.556;49.216;2023-12-20T05:15:57;0.50;;;0.50;;
67564;SDS011;54393;53.556;49.216;2023-12-20T05:18:26;0.60;;;0.60;;
67564;SDS011;54393;53.556;49.216;2023-12-20T05:21:06;0.40;;;0.40;;
67564;SDS011;54393;53.556;49.216;2023-12-20T05:23:35;0.47;;;0.47;;
67564;SDS011;54393;53.556;49.216;2023-12-20T05:26:05;0.77;;;0.50;;
67564;SDS011;54393;53.556;49.216;2023-12-20T05:28:34;0.43;;;0.40;;
67564;SDS011;54393;53.556;49.216;2023-12-20T05:31:12;0.30;;;0.30;;
67564;SDS011;54393;53.556;49.216;2023-12-20T05:33:42;0.60;;;0.60;;
67564;SDS011;54393;53.556;49.216;2023-12-20T05:36:12;1.70;;;0.50;;
67564;SDS011;54393;53.556;49.216;2023-12-20T05:38:48;1.00;;;0.70;;
67564;SDS011;54393;53.556;49.216;2023-12-20T05:41:18;0.45;;;0.45;;
67564;SDS011;54393;53.556;49.216;2023-12-20T05:43:48;2.15;;;0.70;;
67564;SDS011;54393;53.556;49.216;2023-12-20T05:46:20;1.65;;;0.50;;
67564;SDS011;54393;53.556;49.216;2023-12-20T05:48:49;0.82;;;0.55;;
67564;SDS011;54393;53.556;49.216;2023-12-20T05:51:20;2.83;;;0.50;;
67564;SDS011;54393;53.556;49.216;2023-12-20T05:53:52;0.57;;;0.57;;
67564;SDS011;54393;53.556;49.216;2023-12-20T05:56:21;2.70;;;0.40;;
67564;SDS011;54393;53.556;49.216;2023-12-20T05:58:50;1.37;;;0.82;;
67564;SDS011;54393;53.556;49.216;2023-12-20T06:01:17;1.05;;;0.60;;
67564;SDS011;54393;53.556;49.216;2023-12-20T06:03:44;2.03;;;0.95;;
67564;SDS011;54393;53.556;49.216;2023-12-20T06:06:21;4.25;;;1.23;;
67564;SDS011;54393;53.556;49.216;2023-12-20T06:08:52;2.55;;;0.80;;
67564;SDS011;54393;53.556;49.216;2023-12-20T06:11:26;4.57;;;1.10;;
67564;SDS011;54393;53.556;49.216;2023-12-20T06:13:57;2.70;;;1.55;;
67564;SDS011;54393;53.556;49.216;2023-12-20T06:16:38;1.75;;;0.90;;
67564;SDS011;54393;53.556;49.216;2023-12-20T06:19:12;7.05;;;1.25;;
67564;SDS011;54393;53.556;49.216;2023-12-20T06:21:46;2.30;;;1.00;;
67564;SDS011;54393;53.556;49.216;2023-12-20T06:24:22;3.20;;;1.30;;
67564;SDS011;54393;53.556;49.216;2023-12-20T06:26:58;1.95;;;1.33;;
67564;SDS011;54393;53.556;49.216;2023-12-20T06:29:33;2.85;;;1.15;;
67564;SDS011;54393;53.556;49.216;2023-12-20T06:32:18;1.75;;;0.93;;
67564;SDS011;54393;53.556;49.216;2023-12-20T06:34:50;1.15;;;0.80;;
67564;SDS011;54393;53.556;49.216;2023-12-20T06:37:25;2.65;;;1.00;;
67564;SDS011;54393;53.556;49.216;2023-12-20T06:39:57;3.83;;;1.05;;
67564;SDS011;54393;53.556;49.216;2023-12-20T06:42:30;1.40;;;1.30;;
67564;SDS011;54393;53.556;49.216;2023-12-20T06:45:14;3.42;;;1.12;;
67564;SDS011;54393;53.556;49.216;2023-12-20T06:47:42;3.67;;;1.25;;
67564;SDS011;54393;53.556;49.216;2023-12-20T06:50:14;5.00;;;1.23;;
67564;SDS011;54393;53.556;49.216;2023-12-20T06:52:42;5.30;;;1.50;;
67564;SDS011;54393;53.556;49.216;2023-12-20T06:55:12;3.45;;;1.37;;
67564;SDS011;54393;53.556;49.216;2023-12-20T06:57:39;5.93;;;1.85;;
67564;SDS011;54393;53.556;49.216;2023-12-20T07:00:06;7.03;;;2.00;;
67564;SDS011;54393;53.556;49.216;2023-12-20T07:02:33;4.93;;;1.62;;
67564;SDS011;54393;53.556;49.216;2023-12-20T07:05:16;4.53;;;1.62;;
67564;SDS011;54393;53.556;49.216;2023-12-20T07:07:46;7.60;;;2.30;;
67564;SDS011;54393;53.556;49.216;2023-12-20T07:10:13;3.72;;;2.20;;
67564;SDS011;54393;53.556;49.216;2023-12-20T07:12:41;8.05;;;2.42;;
67564;SDS011;54393;53.556;49.216;2023-12-20T07:15:14;3.67;;;2.08;;
67564;SDS011;54393;53.556;49.216;2023-12-20T07:17:45;7.07;;;1.92;;
67564;SDS011;54393;53.556;49.216;2023-12-20T07:20:23;7.18;;;1.87;;
67564;SDS011;54393;53.556;49.216;2023-12-20T07:22:51;8.27;;;2.47;;
67564;SDS011;54393;53.556;49.216;2023-12-20T07:25:26;8.00;;;2.97;;
67564;SDS011;54393;53.556;49.216;2023-12-20T07:27:58;7.07;;;2.83;;
67564;SDS011;54393;53.556;49.216;2023-12-20T07:30:25;7.45;;;2.20;;
67564;SDS011;54393;53.556;49.216;2023-12-20T07:32:54;7.10;;;2.10;;
67564;SDS011;54393;53.556;49.216;2023-12-20T07:35:35;5.50;;;2.03;;
67564;SDS011;54393;53.556;49.216;2023-12-20T07:38:02;4.43;;;2.22;;
67564;SDS011;54393;53.556;49.216;2023-12-20T07:40:34;5.68;;;2.12;;
67564;SDS011;54393;53.556;49.216;2023-12-20T07:43:06;7.78;;;2.55;;
67564;SDS011;54393;53.556;49.216;2023-12-20T07:45:32;8.15;;;2.28;;
67564;SDS011;54393;53.556;49.216;2023-12-20T07:47:58;6.82;;;2.47;;
67564;SDS011;54393;53.556;49.216;2023-12-20T07:50:25;9.18;;;2.67;;
67564;SDS011;54393;53.556;49.216;2023-12-20T07:52:52;6.85;;;2.55;;
67564;SDS011;54393;53.556;49.216;2023-12-20T07:55:24;8.15;;;2.65;;
67564;SDS011;54393;53.556;49.216;2023-12-20T07:57:51;7.93;;;2.70;;
67564;SDS011;54393;53.556;49.216;2023-12-20T08:00:17;7.43;;;2.78;;
67564;SDS011;54393;53.556;49.216;2023-12-20T08:02:48;5.78;;;2.60;;
67564;SDS011;54393;53.556;49.216;2023-12-20T08:05:18;10.00;;;2.72;;
67564;SDS011;54393;53.556;49.216;2023-12-20T08:07:48;14.25;;;2.97;;
67564;SDS011;54393;53.556;49.216;2023-12-20T08:10:15;9.90;;;2.67;;
67564;SDS011;54393;53.556;49.216;2023-12-20T08:12:43;12.25;;;3.17;;
67564;SDS011;54393;53.556;49.216;2023-12-20T08:15:09;5.50;;;2.58;;
67564;SDS011;54393;53.556;49.216;2023-12-20T08:17:36;6.65;;;2.70;;
67564;SDS011;54393;53.556;49.216;2023-12-20T08:20:02;10.75;;;2.75;;
67564;SDS011;54393;53.556;49.216;2023-12-20T08:22:30;8.95;;;2.85;;
67564;SDS011;54393;53.556;49.216;2023-12-20T08:24:56;9.98;;;3.40;;
67564;SDS011;54393;53.556;49.216;2023-12-20T08:27:23;11.93;;;2.90;;
67564;SDS011;54393;53.556;49.216;2023-12-20T08:29:51;9.55;;;3.22;;
67564;SDS011;54393;53.556;49.216;2023-12-20T08:32:20;7.22;;;2.72;;
67564;SDS011;54393;53.556;49.216;2023-12-20T08:34:47;8.43;;;3.05;;
67564;SDS011;54393;53.556;49.216;2023-12-20T08:37:13;6.62;;;2.92;;
67564;SDS011;54393;53.556;49.216;2023-12-20T08:39:40;6.15;;;2.80;;
67564;SDS011;54393;53.556;49.216;2023-12-20T08:42:06;6.82;;;2.90;;
67564;SDS011;54393;53.556;49.216;2023-12-20T08:44:33;5.00;;;2.75;;
67564;SDS011;54393;53.556;49.216;2023-12-20T08:47:00;8.25;;;2.95;;
67564;SDS011;54393;53.556;49.216;2023-12-20T08:49:26;8.80;;;3.20;;
67564;SDS011;54393;53.556;49.216;2023-12-20T08:51:53;9.93;;;2.92;;
67564;SDS011;54393;53.556;49.216;2023-12-20T08:54:20;5.57;;;2.28;;
67564;SDS011;54393;53.556;49.216;2023-12-20T08:56:46;7.72;;;2.28;;
67564;SDS011;54393;53.556;49.216;2023-12-20T08:59:13;4.07;;;2.00;;
67564;SDS011;54393;53.556;49.216;2023-12-20T09:01:39;6.45;;;2.25;;
67564;SDS011;54393;53.556;49.216;2023-12-20T09:04:06;5.32;;;2.60;;
67564;SDS011;54393;53.556;49.216;2023-12-20T09:06:32;3.87;;;2.20;;
67564;SDS011;54393;53.556;49.216;2023-12-20T09:08:59;5.10;;;2.10;;
67564;SDS011;54393;53.556;49.216;2023-12-20T09:11:25;2.50;;;2.00;;
67564;SDS011;54393;53.556;49.216;2023-12-20T09:13:52;2.80;;;1.80;;
67564;SDS011;54393;53.556;49.216;2023-12-20T09:16:18;2.47;;;1.42;;
67564;SDS011;54393;53.556;49.216;2023-12-20T09:18:45;3.35;;;1.70;;
67564;SDS011;54393;53.556;49.216;2023-12-20T09:21:11;3.15;;;1.40;;
67564;SDS011;54393;53.556;49.216;2023-12-20T09:23:38;3.20;;;1.83;;
67564;SDS011;54393;53.556;49.216;2023-12-20T09:26:05;5.62;;;2.00;;
67564;SDS011;54393;53.556;49.216;2023-12-20T09:28:31;3.20;;;1.60;;
67564;SDS011;54393;53.556;49.216;2023-12-20T09:31:02;2.42;;;1.48;;
67564;SDS011;54393;53.556;49.216;2023-12-20T09:33:29;2.15;;;1.60;;
67564;SDS011;54393;53.556;49.216;2023-12-20T09:35:59;2.22;;;1.73;;
67564;SDS011;54393;53.556;49.216;2023-12-20T09:38:26;1.40;;;1.30;;
67564;SDS011;54393;53.556;49.216;2023-12-20T09:40:52;1.67;;;1.20;;
67564;SDS011;54393;53.556;49.216;2023-12-20T09:43:20;3.22;;;1.15;;
67564;SDS011;54393;53.556;49.216;2023-12-20T09:45:52;1.87;;;1.27;;
67564;SDS011;54393;53.556;49.216;2023-12-20T09:48:20;2.62;;;1.40;;
67564;SDS011;54393;53.556;49.216;2023-12-20T09:50:46;2.90;;;1.50;;
67564;SDS011;54393;53.556;49.216;2023-12-20T09:53:14;2.55;;;1.30;;
67564;SDS011;54393;53.556;49.216;2023-12-20T09:55:41;2.25;;;1.00;;
67564;SDS011;54393;53.556;49.216;2023-12-20T09:58:08;1.12;;;1.08;;
67564;SDS011;54393;53.556;49.216;2023-12-20T10:00:35;3.55;;;1.52;;
67564;SDS011;54393;53.556;49.216;2023-12-20T10:03:01;1.20;;;1.10;;
67564;SDS011;54393;53.556;49.216;2023-12-20T10:05:33;1.17;;;1.10;;
67564;SDS011;54393;53.556;49.216;2023-12-20T10:08:00;1.27;;;1.12;;
67564;SDS011;54393;53.556;49.216;2023-12-20T10:10:28;1.05;;;0.95;;
67564;SDS011;54393;53.556;49.216;2023-12-20T10:13:04;2.08;;;0.80;;
67564;SDS011;54393;53.556;49.216;2023-12-20T10:15:32;1.75;;;0.70;;
67564;SDS011;54393;53.556;49.216;2023-12-20T10:18:00;1.98;;;0.75;;
67564;SDS011;54393;53.556;49.216;2023-12-20T10:20:27;2.92;;;0.90;;
67564;SDS011;54393;53.556;49.216;2023-12-20T10:22:54;1.25;;;0.77;;
67564;SDS011;54393;53.556;49.216;2023-12-20T10:25:22;0.88;;;0.85;;
67564;SDS011;54393;53.556;49.216;2023-12-20T10:27:49;0.70;;;0.70;;
67564;SDS011;54393;53.556;49.216;2023-12-20T10:30:16;1.35;;;0.70;;
67564;SDS011;54393;53.556;49.216;2023-12-20T10:32:43;1.67;;;0.68;;
67564;SDS011;54393;53.556;49.216;2023-12-20T10:35:09;2.62;;;0.90;;
67564;SDS011;54393;53.556;49.216;2023-12-20T10:37:37;0.60;;;0.60;;
67564;SDS011;54393;53.556;49.216;2023-12-20T10:40:04;1.00;;;0.55;;
67564;SDS011;54393;53.556;49.216;2023-12-20T10:42:32;1.15;;;0.80;;
67564;SDS011;54393;53.556;49.216;2023-12-20T10:44:59;1.50;;;0.50;;
67564;SDS011;54393;53.556;49.216;2023-12-20T10:47:26;0.50;;;0.50;;
67564;SDS011;54393;53.556;49.216;2023-12-20T10:49:54;0.65;;;0.50;;
67564;SDS011;54393;53.556;49.216;2023-12-20T10:52:22;0.55;;;0.55;;
67564;SDS011;54393;53.556;49.216;2023-12-20T10:54:52;0.98;;;0.60;;
67564;SDS011;54393;53.556;49.216;2023-12-20T10:57:18;0.60;;;0.60;;
67564;SDS011;54393;53.556;49.216;2023-12-20T10:59:45;0.80;;;0.80;;
67564;SDS011;54393;53.556;49.216;2023-12-20T11:02:13;1.55;;;0.98;;
67564;SDS011;54393;53.556;49.216;2023-12-20T11:08:07;2.55;;;1.23;;
67564;SDS011;54393;53.556;49.216;2023-12-20T11:14:03;2.37;;;1.77;;
67564;SDS011;54393;53.556;49.216;2023-12-20T11:16:20;3.95;;;1.92;;
67564;SDS011;54393;53.556;49.216;2023-12-20T11:18:47;3.33;;;2.03;;
67564;SDS011;54393;53.556;49.216;2023-12-20T11:21:13;2.20;;;2.00;;
67564;SDS011;54393;53.556;49.216;2023-12-20T11:23:40;3.72;;;2.20;;
67564;SDS011;54393;53.556;49.216;2023-12-20T11:26:08;2.40;;;2.20;;
67564;SDS011;54393;53.556;49.216;2023-12-20T11:28:35;5.37;;;2.50;;
67564;SDS011;54393;53.556;49.216;2023-12-20T11:31:02;4.22;;;2.37;;
67564;SDS011;54393;53.556;49.216;2023-12-20T11:33:38;4.07;;;2.45;;
67564;SDS011;54393;53.556;49.216;2023-12-20T11:36:12;3.03;;;2.30;;
67564;SDS011;54393;53.556;49.216;2023-12-20T11:38:56;3.35;;;2.30;;
67564;SDS011;54393;53.556;49.216;2023-12-20T11:41:23;3.67;;;2.75;;
67564;SDS011;54393;53.556;49.216;2023-12-20T11:43:51;2.53;;;2.22;;
67564;SDS011;54393;53.556;49.216;2023-12-20T11:46:19;4.35;;;2.37;;
67564;SDS011;54393;53.556;49.216;2023-12-20T11:48:47;2.92;;;2.12;;
67564;SDS011;54393;53.556;49.216;2023-12-20T11:51:14;2.92;;;2.25;;
67564;SDS011;54393;53.556;49.216;2023-12-20T11:53:40;3.50;;;2.65;;
67564;SDS011;54393;53.556;49.216;2023-12-20T11:56:10;2.20;;;2.00;;
67564;SDS011;54393;53.556;49.216;2023-12-20T11:58:37;3.45;;;2.17;;
67564;SDS011;54393;53.556;49.216;2023-12-20T12:01:04;3.10;;;2.25;;
67564;SDS011;54393;53.556;49.216;2023-12-20T12:03:35;3.55;;;1.95;;
67564;SDS011;54393;53.556;49.216;2023-12-20T12:06:04;2.10;;;1.90;;
67564;SDS011;54393;53.556;49.216;2023-12-20T12:08:30;3.80;;;2.20;;
67564;SDS011;54393;53.556;49.216;2023-12-20T12:10:57;3.08;;;2.17;;
67564;SDS011;54393;53.556;49.216;2023-12-20T12:13:24;3.60;;;1.87;;
67564;SDS011;54393;53.556;49.216;2023-12-20T12:15:53;5.28;;;2.15;;
67564;SDS011;54393;53.556;49.216;2023-12-20T12:18:20;3.20;;;1.70;;
67564;SDS011;54393;53.556;49.216;2023-12-20T12:20:49;1.55;;;1.45;;
67564;SDS011;54393;53.556;49.216;2023-12-20T12:23:22;2.08;;;1.58;;
67564;SDS011;54393;53.556;49.216;2023-12-20T12:25:52;2.47;;;2.10;;
67564;SDS011;54393;53.556;49.216;2023-12-20T12:28:21;2.47;;;1.70;;
67564;SDS011;54393;53.556;49.216;2023-12-20T12:30:57;1.40;;;1.30;;
67564;SDS011;54393;53.556;49.216;2023-12-20T12:33:25;1.92;;;1.70;;
67564;SDS011;54393;53.556;49.216;2023-12-20T12:35:51;3.45;;;1.75;;
67564;SDS011;54393;53.556;49.216;2023-12-20T12:38:21;2.00;;;1.60;;
67564;SDS011;54393;53.556;49.216;2023-12-20T12:40:48;2.58;;;1.75;;
67564;SDS011;54393;53.556;49.216;2023-12-20T12:43:15;4.93;;;1.98;;
67564;SDS011;54393;53.556;49.216;2023-12-20T12:45:42;1.73;;;1.40;;
67564;SDS011;54393;53.556;49.216;2023-12-20T12:48:08;2.95;;;1.45;;
67564;SDS011;54393;53.556;49.216;2023-12-20T12:50:35;2.00;;;1.40;;
67564;SDS011;54393;53.556;49.216;2023-12-20T12:53:01;2.85;;;1.60;;
67564;SDS011;54393;53.556;49.216;2023-12-20T12:55:28;2.03;;;1.75;;
67564;SDS011;54393;53.556;49.216;2023-12-20T12:57:55;1.87;;;1.55;;
67564;SDS011;54393;53.556;49.216;2023-12-20T13:00:21;2.70;;;1.92;;
67564;SDS011;54393;53.556;49.216;2023-12-20T13:02:49;1.95;;;1.48;;
67564;SDS011;54393;53.556;49.216;2023-12-20T13:05:15;1.62;;;1.10;;
67564;SDS011;54393;53.556;49.216;2023-12-20T13:07:43;1.42;;;1.33;;
67564;SDS011;54393;53.556;49.216;2023-12-20T13:10:11;1.67;;;1.45;;
67564;SDS011;54393;53.556;49.216;2023-12-20T13:12:37;2.67;;;1.42;;
67564;SDS011;54393;53.556;49.216;2023-12-20T13:15:04;1.52;;;1.20;;
67564;SDS011;54393;53.556;49.216;2023-12-20T13:17:31;2.47;;;1.52;;
67564;SDS011;54393;53.556;49.216;2023-12-20T13:19:57;1.75;;;1.35;;
67564;SDS011;54393;53.556;49.216;2023-12-20T13:22:25;1.92;;;1.48;;
67564;SDS011;54393;53.556;49.216;2023-12-20T13:24:51;4.30;;;1.85;;
67564;SDS011;54393;53.556;49.216;2023-12-20T13:27:17;5.25;;;1.77;;
67564;SDS011;54393;53.556;49.216;2023-12-20T13:29:44;1.85;;;1.37;;
67564;SDS011;54393;53.556;49.216;2023-12-20T13:32:10;3.42;;;1.62;;
67564;SDS011;54393;53.556;49.216;2023-12-20T13:34:37;2.10;;;1.40;;
67564;SDS011;54393;53.556;49.216;2023-12-20T13:37:03;2.72;;;1.65;;
67564;SDS011;54393;53.556;49.216;2023-12-20T13:39:30;3.37;;;1.65;;
67564;SDS011;54393;53.556;49.216;2023-12-20T13:41:57;1.80;;;1.50;;
67564;SDS011;54393;53.556;49.216;2023-12-20T13:44:23;2.35;;;1.60;;
67564;SDS011;54393;53.556;49.216;2023-12-20T13:46:50;4.07;;;1.60;;
67564;SDS011;54393;53.556;49.216;2023-12-20T13:49:16;5.30;;;1.50;;
67564;SDS011;54393;53.556;49.216;2023-12-20T13:51:43;2.65;;;1.60;;
67564;SDS011;54393;53.556;49.216;2023-12-20T13:54:09;4.40;;;1.40;;
67564;SDS011;54393;53.556;49.216;2023-12-20T13:56:36;2.33;;;1.75;;
67564;SDS011;54393;53.556;49.216;2023-12-20T13:59:02;4.20;;;1.60;;
67564;SDS011;54393;53.556;49.216;2023-12-20T14:01:29;2.90;;;1.62;;
67564;SDS011;54393;53.556;49.216;2023-12-20T14:03:55;2.40;;;1.42;;
67564;SDS011;54393;53.556;49.216;2023-12-20T14:06:22;1.58;;;1.45;;
67564;SDS011;54393;53.556;49.216;2023-12-20T14:08:48;1.33;;;1.15;;
67564;SDS011;54393;53.556;49.216;2023-12-20T14:11:15;2.03;;;1.30;;
67564;SDS011;54393;53.556;49.216;2023-12-20T14:13:41;2.22;;;1.37;;
67564;SDS011;54393;53.556;49.216;2023-12-20T14:16:08;1.75;;;1.33;;
67564;SDS011;54393;53.556;49.216;2023-12-20T14:18:36;2.58;;;1.50;;
67564;SDS011;54393;53.556;49.216;2023-12-20T14:21:02;2.05;;;1.23;;
67564;SDS011;54393;53.556;49.216;2023-12-20T14:23:31;2.62;;;1.25;;
67564;SDS011;54393;53.556;49.216;2023-12-20T14:25:59;2.10;;;1.60;;
67564;SDS011;54393;53.556;49.216;2023-12-20T14:28:25;1.60;;;1.48;;
67564;SDS011;54393;53.556;49.216;2023-12-20T14:30:52;1.98;;;1.05;;
67564;SDS011;54393;53.556;49.216;2023-12-20T14:33:18;2.37;;;1.20;;
67564;SDS011;54393;53.556;49.216;2023-12-20T14:35:46;1.95;;;1.25;;
67564;SDS011;54393;53.556;49.216;2023-12-20T14:38:13;1.90;;;1.33;;
67564;SDS011;54393;53.556;49.216;2023-12-20T14:40:42;1.77;;;1.35;;
67564;SDS011;54393;53.556;49.216;2023-12-20T14:43:09;1.95;;;1.20;;
67564;SDS011;54393;53.556;49.216;2023-12-20T14:45:35;2.08;;;1.58;;
67564;SDS011;54393;53.556;49.216;2023-12-20T14:48:02;1.30;;;1.20;;
67564;SDS011;54393;53.556;49.216;2023-12-20T14:50:30;1.65;;;1.20;;
67564;SDS011;54393;53.556;49.216;2023-12-20T14:52:56;1.98;;;1.45;;
67564;SDS011;54393;53.556;49.216;2023-12-20T14:55:23;1.70;;;1.35;;
67564;SDS011;54393;53.556;49.216;2023-12-20T14:57:52;1.23;;;1.12;;
67564;SDS011;54393;53.556;49.216;2023-12-20T15:00:18;2.30;;;1.42;;
67564;SDS011;54393;53.556;49.216;2023-12-20T15:02:45;1.77;;;1.20;;